createdAt,value
2022-11-07T00:00:38.783Z,7.32
2022-11-07T00:03:05.948Z,7.70
2022-11-07T00:05:33.035Z,7.50
2022-11-07T00:08:00.077Z,6.78
2022-11-07T00:10:27.087Z,6.15
2022-11-07T00:12:54.235Z,6.75
2022-11-07T00:15:21.274Z,6.68
2022-11-07T00:17:48.274Z,6.82
2022-11-07T00:20:15.305Z,6.45
2022-11-07T00:22:42.375Z,6.70
2022-11-07T00:25:09.481Z,10.32
2022-11-07T00:27:36.525Z,8.75
2022-11-07T00:30:03.905Z,7.32
2022-11-07T00:32:30.919Z,7.65
2022-11-07T00:34:57.977Z,8.25
2022-11-07T00:37:25.093Z,6.32
2022-11-07T00:39:52.095Z,7.65
2022-11-07T00:42:19.104Z,6.20
2022-11-07T00:44:46.197Z,7.97
2022-11-07T00:47:13.201Z,5.35
2022-11-07T00:49:40.227Z,6.93
2022-11-07T00:52:07.259Z,6.60
2022-11-07T00:54:34.333Z,5.43
2022-11-07T00:57:01.333Z,6.72
2022-11-07T00:59:28.361Z,6.70
2022-11-07T01:01:55.528Z,7.13
2022-11-07T01:04:41.084Z,7.47
2022-11-07T01:07:08.149Z,6.20
2022-11-07T01:09:35.421Z,7.15
2022-11-07T01:12:02.448Z,7.00
2022-11-07T01:14:29.509Z,8.38
2022-11-07T01:16:56.506Z,5.13
2022-11-07T01:19:23.516Z,9.90
2022-11-07T01:21:51.054Z,7.07
2022-11-07T01:24:18.167Z,5.15
2022-11-07T01:26:47.778Z,8.77
2022-11-07T01:29:15.602Z,11.73
2022-11-07T01:31:42.691Z,6.32
2022-11-07T01:34:09.730Z,6.38
2022-11-07T01:36:36.806Z,8.20
2022-11-07T01:39:04.086Z,6.32
2022-11-07T01:41:31.989Z,9.68
2022-11-07T01:43:59.021Z,6.50
2022-11-07T01:46:27.238Z,8.02
2022-11-07T01:48:56.174Z,8.07
2022-11-07T01:51:23.187Z,8.60
2022-11-07T01:53:50.338Z,9.05
2022-11-07T01:56:18.053Z,11.13
2022-11-07T01:58:45.137Z,11.68
2022-11-07T02:01:12.129Z,10.05
2022-11-07T02:03:39.160Z,8.98
2022-11-07T02:06:07.233Z,13.48
2022-11-07T02:08:34.227Z,8.60
2022-11-07T02:11:02.628Z,8.30
2022-11-07T02:13:31.146Z,8.55
2022-11-07T02:16:02.215Z,10.07
2022-11-07T02:18:29.251Z,12.23
2022-11-07T02:20:57.429Z,13.02
2022-11-07T02:23:27.529Z,6.57
2022-11-07T02:25:54.688Z,8.15
2022-11-07T02:28:21.769Z,9.40
2022-11-07T02:30:48.773Z,10.32
2022-11-07T02:33:19.134Z,10.38
2022-11-07T02:35:46.966Z,10.93
2022-11-07T02:38:24.494Z,10.23
2022-11-07T02:40:52.166Z,9.13
2022-11-07T02:43:19.775Z,9.05
2022-11-07T02:45:47.030Z,11.90
2022-11-07T02:48:14.035Z,11.80
2022-11-07T02:50:41.546Z,14.70
2022-11-07T02:53:08.570Z,13.30
2022-11-07T02:55:35.618Z,16.05
2022-11-07T02:58:03.085Z,14.88
2022-11-07T03:00:30.135Z,15.65
2022-11-07T03:02:57.350Z,17.95
2022-11-07T03:05:24.426Z,14.98
2022-11-07T03:07:51.457Z,19.70
2022-11-07T03:10:18.571Z,17.88
2022-11-07T03:12:45.717Z,12.45
2022-11-07T03:15:13.342Z,19.80
2022-11-07T03:17:40.675Z,16.77
2022-11-07T03:20:08.092Z,17.15
2022-11-07T03:22:35.100Z,22.70
2022-11-07T03:25:02.200Z,14.38
2022-11-07T03:27:29.237Z,19.88
2022-11-07T03:29:56.268Z,14.77
2022-11-07T03:32:23.281Z,17.58
2022-11-07T03:34:50.424Z,16.75
2022-11-07T03:37:17.553Z,15.77
2022-11-07T03:39:44.567Z,15.80
2022-11-07T03:42:11.577Z,14.20
2022-11-07T03:44:38.632Z,13.70
2022-11-07T03:47:05.656Z,18.95
2022-11-07T03:49:32.659Z,17.42
2022-11-07T03:51:59.901Z,17.75
2022-11-07T03:54:27.061Z,16.13
2022-11-07T03:56:54.076Z,21.67
2022-11-07T03:59:21.084Z,10.88
2022-11-07T04:01:48.263Z,22.45
2022-11-07T04:04:15.352Z,13.27
2022-11-07T04:06:42.407Z,13.57
2022-11-07T04:09:09.397Z,8.85
2022-11-07T04:11:55.207Z,11.40
2022-11-07T04:14:41.106Z,13.60
2022-11-07T04:17:20.590Z,13.80
2022-11-07T04:19:48.090Z,13.52
2022-11-07T04:22:15.139Z,11.25
2022-11-07T04:24:45.773Z,15.75
2022-11-07T04:27:31.771Z,15.45
2022-11-07T04:29:58.804Z,12.25
2022-11-07T04:32:25.857Z,10.40
2022-11-07T04:34:52.902Z,9.82
2022-11-07T04:37:20.028Z,12.68
2022-11-07T04:39:47.124Z,16.35
2022-11-07T04:42:14.113Z,13.48
2022-11-07T04:44:41.146Z,14.82
2022-11-07T04:47:08.157Z,16.05
2022-11-07T04:49:35.213Z,13.05
2022-11-07T04:52:02.250Z,12.10
2022-11-07T04:54:29.268Z,16.15
2022-11-07T04:56:56.342Z,12.25
2022-11-07T04:59:23.362Z,15.10
2022-11-07T05:01:50.608Z,11.13
2022-11-07T05:04:17.743Z,14.02
2022-11-07T05:06:44.805Z,12.20
2022-11-07T05:09:18.077Z,14.68
2022-11-07T05:11:45.897Z,22.95
2022-11-07T05:14:13.081Z,14.80
2022-11-07T05:16:40.527Z,15.70
2022-11-07T05:19:07.573Z,14.38
2022-11-07T05:21:34.575Z,18.50
2022-11-07T05:24:01.604Z,19.88
2022-11-07T05:26:28.609Z,13.90
2022-11-07T05:28:55.637Z,14.93
2022-11-07T05:31:22.638Z,17.48
2022-11-07T05:33:49.682Z,16.70
2022-11-07T05:36:20.123Z,20.05
2022-11-07T05:38:47.795Z,17.30
2022-11-07T05:41:15.043Z,17.75
2022-11-07T05:43:42.072Z,19.13
2022-11-07T05:46:09.188Z,13.50
2022-11-07T05:48:36.340Z,15.55
2022-11-07T05:51:03.519Z,16.63
2022-11-07T05:53:30.658Z,13.40
2022-11-07T05:55:57.994Z,18.75
2022-11-07T05:58:25.101Z,14.60
2022-11-07T06:00:52.209Z,19.55
2022-11-07T06:03:22.556Z,15.23
2022-11-07T06:05:49.683Z,14.50
2022-11-07T06:08:16.718Z,13.43
2022-11-07T06:10:43.991Z,12.13
2022-11-07T06:13:13.488Z,14.13
2022-11-07T06:15:41.118Z,16.85
2022-11-07T06:18:09.089Z,13.65
2022-11-07T06:20:36.106Z,14.73
2022-11-07T06:23:03.740Z,17.55
2022-11-07T06:25:30.790Z,15.60
2022-11-07T06:28:01.086Z,16.25
2022-11-07T06:30:28.174Z,18.27
2022-11-07T06:32:55.202Z,14.43
2022-11-07T06:35:22.218Z,9.80
2022-11-07T06:37:49.210Z,14.27
2022-11-07T06:40:16.302Z,12.25
2022-11-07T06:42:43.317Z,12.20
2022-11-07T06:45:11.396Z,12.10
2022-11-07T06:47:38.416Z,11.88
2022-11-07T06:50:05.601Z,16.73
2022-11-07T06:52:32.609Z,9.85
2022-11-07T06:54:59.629Z,12.90
2022-11-07T06:57:26.719Z,21.25
2022-11-07T06:59:53.710Z,13.20
2022-11-07T07:02:44.296Z,11.00
2022-11-07T07:05:08.164Z,15.38
2022-11-07T07:07:35.177Z,11.48
2022-11-07T07:10:02.189Z,11.13
2022-11-07T07:12:29.211Z,11.43
2022-11-07T07:14:56.204Z,14.65
2022-11-07T07:17:23.252Z,12.38
2022-11-07T07:19:50.268Z,10.80
2022-11-07T07:22:17.353Z,14.10
2022-11-07T07:24:44.347Z,9.15
2022-11-07T07:27:11.415Z,14.77
2022-11-07T07:29:38.418Z,9.95
2022-11-07T07:32:05.451Z,15.93
2022-11-07T07:34:32.475Z,13.55
2022-11-07T07:36:59.485Z,10.98
2022-11-07T07:39:27.842Z,10.73
2022-11-07T07:41:54.880Z,9.48
2022-11-07T07:44:21.937Z,10.52
2022-11-07T07:46:49.192Z,7.43
2022-11-07T07:49:16.245Z,10.98
2022-11-07T07:51:43.265Z,11.73
2022-11-07T07:54:11.831Z,10.57
2022-11-07T07:56:38.862Z,14.77
2022-11-07T07:59:06.475Z,8.88
2022-11-07T08:01:34.027Z,10.32
2022-11-07T08:04:02.542Z,13.50
2022-11-07T08:06:30.122Z,9.07
2022-11-07T08:08:57.178Z,11.55
2022-11-07T08:11:24.259Z,9.77
2022-11-07T08:13:51.251Z,9.07
2022-11-07T08:16:18.379Z,8.50
2022-11-07T08:18:45.403Z,8.95
2022-11-07T08:21:12.498Z,11.38
2022-11-07T08:23:39.590Z,9.93
2022-11-07T08:26:06.854Z,14.25
2022-11-07T08:28:35.777Z,16.23
2022-11-07T08:31:06.915Z,12.85
2022-11-07T08:33:34.015Z,12.23
2022-11-07T08:36:01.605Z,13.43
2022-11-07T08:38:29.127Z,12.30
2022-11-07T08:40:56.284Z,9.38
2022-11-07T08:43:23.330Z,11.05
2022-11-07T08:45:51.331Z,13.27
2022-11-07T08:48:18.399Z,10.27
2022-11-07T08:50:45.577Z,9.77
2022-11-07T08:53:12.659Z,9.57
2022-11-07T08:55:39.682Z,9.80
2022-11-07T08:58:07.311Z,13.15
2022-11-07T09:00:35.025Z,8.88
2022-11-07T09:03:31.207Z,13.68
2022-11-07T09:08:19.886Z,7.07
2022-11-07T09:10:46.963Z,9.13
2022-11-07T09:13:15.147Z,13.68
2022-11-07T09:15:47.742Z,10.93
2022-11-07T09:18:17.571Z,11.15
2022-11-07T09:20:44.589Z,10.98
2022-11-07T09:23:11.652Z,8.07
2022-11-07T09:25:38.711Z,30.00
2022-11-07T09:28:05.878Z,24.65
2022-11-07T09:30:33.122Z,9.05
2022-11-07T09:33:00.158Z,10.68
2022-11-07T09:35:27.206Z,15.05
2022-11-07T09:37:54.268Z,11.90
2022-11-07T09:40:21.303Z,8.95
2022-11-07T09:42:57.699Z,9.07
2022-11-07T09:45:24.808Z,12.18
2022-11-07T09:48:00.477Z,7.28
2022-11-07T09:50:37.418Z,11.27
2022-11-07T09:53:07.606Z,7.18
2022-11-07T09:55:35.968Z,14.38
2022-11-07T09:58:03.737Z,10.65
2022-11-07T10:00:31.036Z,5.68
2022-11-07T10:02:58.522Z,9.00
2022-11-07T10:05:48.570Z,9.15
2022-11-07T10:08:17.627Z,11.85
2022-11-07T10:10:45.573Z,10.40
2022-11-07T10:13:15.933Z,14.23
2022-11-07T10:18:19.930Z,12.57
2022-11-07T10:20:47.021Z,18.27
2022-11-07T10:23:19.907Z,7.32
2022-11-07T10:25:54.492Z,11.05
2022-11-07T10:28:22.346Z,11.32
2022-11-07T10:30:50.447Z,9.32
2022-11-07T10:33:21.820Z,10.00
2022-11-07T10:35:50.914Z,7.25
2022-11-07T10:38:18.950Z,9.93
2022-11-07T10:40:46.034Z,6.72
2022-11-07T10:43:28.571Z,9.05
2022-11-07T10:45:55.656Z,9.93
2022-11-07T10:48:22.702Z,7.07
2022-11-07T10:50:53.438Z,10.40
2022-11-07T10:53:20.815Z,9.13
2022-11-07T10:55:48.399Z,13.35
2022-11-07T10:58:17.984Z,8.75
2022-11-07T11:00:45.257Z,8.00
2022-11-07T11:03:16.087Z,14.38
2022-11-07T11:05:44.023Z,7.55
2022-11-07T11:08:18.656Z,8.25
2022-11-07T11:10:46.134Z,11.35
2022-11-07T11:13:26.119Z,11.40
2022-11-07T11:15:53.157Z,8.38
2022-11-07T11:18:20.286Z,9.45
2022-11-07T11:20:54.162Z,9.10
2022-11-07T11:23:22.213Z,11.63
2022-11-07T11:25:50.001Z,9.02
2022-11-07T11:28:25.121Z,6.32
2022-11-07T11:30:54.995Z,8.23
2022-11-07T11:33:30.903Z,6.15
2022-11-07T11:35:59.358Z,7.55
2022-11-07T11:38:36.126Z,6.75
2022-11-07T11:41:19.901Z,6.97
2022-11-07T11:43:57.259Z,6.97
2022-11-07T11:46:28.714Z,7.95
2022-11-07T11:49:04.515Z,10.52
2022-11-07T11:51:35.511Z,9.73
2022-11-07T11:54:02.552Z,7.90
2022-11-07T11:56:48.365Z,5.78
2022-11-07T11:59:38.783Z,6.15
2022-11-07T12:02:41.394Z,9.50
2022-11-07T12:05:12.534Z,6.10
2022-11-07T12:07:39.536Z,6.38
2022-11-07T12:10:18.562Z,6.13
2022-11-07T12:13:04.247Z,6.88
2022-11-07T12:15:33.778Z,4.53
2022-11-07T12:18:03.568Z,8.32
2022-11-07T12:20:45.422Z,6.82
2022-11-07T12:23:31.226Z,3.72
2022-11-07T12:26:05.559Z,8.77
2022-11-07T12:28:35.762Z,8.65
2022-11-07T12:31:20.793Z,8.00
2022-11-07T12:33:56.816Z,7.82
2022-11-07T12:36:34.625Z,6.85
2022-11-07T12:39:01.646Z,5.90
2022-11-07T12:41:38.160Z,6.88
2022-11-07T12:44:19.125Z,5.97
2022-11-07T12:46:49.267Z,4.47
2022-11-07T12:49:26.423Z,9.18
2022-11-07T12:51:53.463Z,13.00
2022-11-07T12:54:20.456Z,6.00
2022-11-07T12:56:47.597Z,10.32
2022-11-07T12:59:17.255Z,8.43
2022-11-07T13:02:00.337Z,11.50
2022-11-07T13:04:28.764Z,8.85
2022-11-07T13:06:58.022Z,10.45
2022-11-07T13:09:32.694Z,6.20
2022-11-07T13:12:02.261Z,5.75
2022-11-07T13:14:31.111Z,10.32
2022-11-07T13:17:15.022Z,5.70
2022-11-07T13:19:45.761Z,7.53
2022-11-07T13:22:15.896Z,10.43
2022-11-07T13:25:18.310Z,10.57
2022-11-07T13:28:05.729Z,11.73
2022-11-07T13:30:35.127Z,9.32
2022-11-07T13:33:02.291Z,10.48
2022-11-07T13:35:38.840Z,6.93
2022-11-07T13:38:10.300Z,7.05
2022-11-07T13:40:50.573Z,7.28
2022-11-07T13:43:20.750Z,8.02
2022-11-07T13:45:51.409Z,9.23
2022-11-07T13:48:37.563Z,13.13
2022-11-07T13:51:16.774Z,9.90
2022-11-07T13:54:03.993Z,6.32
2022-11-07T13:56:50.581Z,8.52
2022-11-07T13:59:25.585Z,8.18
2022-11-07T14:01:55.196Z,10.52
2022-11-07T14:04:22.362Z,10.90
2022-11-07T14:06:49.968Z,10.63
2022-11-07T14:09:17.656Z,9.07
2022-11-07T14:11:44.795Z,6.65
2022-11-07T14:14:11.858Z,12.38
2022-11-07T14:16:38.946Z,7.50
2022-11-07T14:19:13.717Z,13.13
2022-11-07T14:21:43.575Z,12.30
2022-11-07T14:24:20.816Z,7.00
2022-11-07T14:26:57.219Z,9.07
2022-11-07T14:29:24.359Z,9.02
2022-11-07T14:31:51.365Z,7.90
2022-11-07T14:34:19.154Z,10.52
2022-11-07T14:36:49.957Z,12.05
2022-11-07T14:39:17.711Z,8.48
2022-11-07T14:41:44.785Z,7.72
2022-11-07T14:44:25.184Z,14.40
2022-11-07T14:46:55.772Z,9.20
2022-11-07T14:49:35.396Z,15.93
2022-11-07T14:52:02.479Z,15.87
2022-11-07T14:54:32.331Z,11.50
2022-11-07T14:56:59.349Z,7.22
2022-11-07T14:59:26.782Z,9.13
2022-11-07T15:01:58.421Z,11.35
2022-11-07T15:04:29.967Z,14.00
2022-11-07T15:06:57.074Z,12.95
2022-11-07T15:09:33.650Z,12.73
2022-11-07T15:12:00.932Z,9.27
2022-11-07T15:14:32.278Z,11.05
2022-11-07T15:17:00.687Z,9.43
2022-11-07T15:19:27.893Z,12.23
2022-11-07T15:22:00.123Z,14.48
2022-11-07T15:24:43.212Z,10.55
2022-11-07T15:27:20.708Z,13.80
2022-11-07T15:29:57.805Z,9.10
2022-11-07T15:32:25.751Z,9.13
2022-11-07T15:35:29.768Z,11.25
2022-11-07T15:37:57.272Z,8.60
2022-11-07T15:40:24.532Z,12.75
2022-11-07T15:42:51.609Z,12.68
2022-11-07T15:45:18.825Z,9.68
2022-11-07T15:47:45.875Z,8.98
2022-11-07T15:50:20.096Z,10.80
2022-11-07T15:52:47.693Z,8.18
2022-11-07T15:55:15.287Z,10.02
2022-11-07T15:57:42.332Z,12.23
2022-11-07T16:00:14.510Z,13.00
2022-11-07T16:02:41.685Z,9.93
2022-11-07T16:05:08.962Z,14.10
2022-11-07T16:07:36.020Z,10.32
2022-11-07T16:10:03.515Z,13.90
2022-11-07T16:12:30.611Z,9.85
2022-11-07T16:14:59.249Z,6.90
2022-11-07T16:17:26.258Z,8.98
2022-11-07T16:19:57.417Z,8.25
2022-11-07T16:22:27.253Z,9.48
2022-11-07T16:24:54.331Z,10.38
2022-11-07T16:27:21.569Z,10.15
2022-11-07T16:29:48.622Z,15.57
2022-11-07T16:32:18.495Z,14.35
2022-11-07T16:34:45.934Z,16.33
2022-11-07T16:37:12.936Z,11.10
2022-11-07T16:39:39.945Z,8.88
2022-11-07T16:42:06.952Z,16.17
2022-11-07T16:44:33.990Z,9.52
2022-11-07T16:47:01.167Z,8.45
2022-11-07T16:49:33.492Z,18.60
2022-11-07T16:52:00.585Z,7.72
2022-11-07T16:54:27.609Z,7.28
2022-11-07T16:56:54.697Z,8.07
2022-11-07T16:59:22.439Z,12.75
2022-11-07T17:01:50.315Z,5.85
2022-11-07T17:04:17.565Z,9.52
2022-11-07T17:06:47.364Z,9.55
2022-11-07T17:09:17.196Z,16.77
2022-11-07T17:11:44.617Z,6.30
2022-11-07T17:14:11.702Z,17.05
2022-11-07T17:16:38.781Z,8.60
2022-11-07T17:19:05.924Z,11.10
2022-11-07T17:21:33.954Z,9.18
2022-11-07T17:24:01.358Z,8.43
2022-11-07T17:26:29.873Z,13.45
2022-11-07T17:28:57.201Z,10.45
2022-11-07T17:31:24.269Z,10.68
2022-11-07T17:33:51.323Z,11.18
2022-11-07T17:36:35.315Z,14.45
2022-11-07T17:39:05.400Z,11.88
2022-11-07T17:41:32.408Z,11.90
2022-11-07T17:43:59.520Z,14.90
2022-11-07T17:46:27.902Z,11.15
2022-11-07T17:48:55.289Z,15.15
2022-11-07T17:51:22.634Z,14.98
2022-11-07T17:53:49.703Z,12.48
2022-11-07T17:56:17.571Z,7.93
2022-11-07T17:58:45.418Z,10.38
2022-11-07T18:01:21.031Z,15.02
2022-11-07T18:03:49.359Z,12.30
2022-11-07T18:06:16.515Z,13.35
2022-11-07T18:08:52.114Z,13.15
2022-11-07T18:11:20.094Z,12.68
2022-11-07T18:13:47.338Z,17.58
2022-11-07T18:16:18.692Z,11.35
2022-11-07T18:18:45.856Z,9.20
2022-11-07T18:21:12.986Z,9.63
2022-11-07T18:23:40.957Z,12.98
2022-11-07T18:26:20.418Z,15.25
2022-11-07T18:28:48.021Z,16.02
2022-11-07T18:31:15.787Z,15.05
2022-11-07T18:33:42.849Z,17.63
2022-11-07T18:36:11.168Z,18.00
2022-11-07T18:38:38.456Z,12.90
2022-11-07T18:41:09.329Z,10.82
2022-11-07T18:43:36.465Z,12.25
2022-11-07T18:46:03.622Z,7.70
2022-11-07T18:48:30.694Z,10.55
2022-11-07T18:50:57.763Z,8.93
2022-11-07T18:53:24.836Z,11.57
2022-11-07T18:55:58.531Z,6.60
2022-11-07T18:58:25.607Z,10.43
2022-11-07T19:00:52.718Z,8.60
2022-11-07T19:03:19.830Z,8.65
2022-11-07T19:05:47.345Z,10.13
2022-11-07T19:08:14.762Z,8.75
2022-11-07T19:10:42.151Z,15.30
2022-11-07T19:13:09.216Z,9.25
2022-11-07T19:15:39.546Z,11.68
2022-11-07T19:18:06.601Z,8.82
2022-11-07T19:20:33.663Z,11.98
2022-11-07T19:23:00.720Z,15.65
2022-11-07T19:25:27.792Z,11.55
2022-11-07T19:27:54.829Z,8.35
2022-11-07T19:30:21.904Z,14.18
2022-11-07T19:32:51.201Z,11.45
2022-11-07T19:35:19.221Z,15.85
2022-11-07T19:37:46.335Z,16.58
2022-11-07T19:40:13.448Z,12.63
2022-11-07T19:42:40.459Z,15.70
2022-11-07T19:45:07.885Z,18.52
2022-11-07T19:47:34.948Z,18.58
2022-11-07T19:50:01.974Z,17.90
2022-11-07T19:52:29.010Z,17.25
2022-11-07T19:54:56.101Z,14.52
2022-11-07T19:57:23.332Z,10.25
2022-11-07T19:59:50.370Z,12.25
2022-11-07T20:02:32.465Z,11.50
2022-11-07T20:05:00.294Z,15.50
2022-11-07T20:07:27.371Z,11.50
2022-11-07T20:09:54.901Z,15.63
2022-11-07T20:12:22.046Z,13.05
2022-11-07T20:14:49.120Z,11.30
2022-11-07T20:17:16.161Z,15.70
2022-11-07T20:19:43.298Z,11.73
2022-11-07T20:22:12.184Z,21.77
2022-11-07T20:24:52.387Z,14.18
2022-11-07T20:27:47.109Z,14.38
2022-11-07T20:30:50.612Z,15.25
2022-11-07T20:33:26.770Z,10.25
2022-11-07T20:36:12.142Z,12.40
2022-11-07T20:38:46.690Z,14.15
2022-11-07T20:41:22.305Z,13.68
2022-11-07T20:44:13.023Z,12.63
2022-11-07T20:46:46.625Z,14.85
2022-11-07T20:49:30.096Z,9.20
2022-11-07T20:52:15.181Z,15.52
2022-11-07T20:54:52.827Z,9.27
2022-11-07T20:57:39.219Z,11.48
2022-11-07T21:00:22.557Z,8.57
2022-11-07T21:03:20.667Z,15.20
2022-11-07T21:06:02.319Z,12.48
2022-11-07T21:08:44.213Z,14.98
2022-11-07T21:11:21.091Z,9.95
2022-11-07T21:13:53.723Z,9.50
2022-11-07T21:16:29.320Z,15.65
2022-11-07T21:19:36.409Z,13.05
2022-11-07T21:25:06.852Z,10.57
2022-11-07T21:27:44.346Z,13.07
2022-11-07T21:30:27.330Z,16.73
2022-11-07T21:33:02.095Z,18.67
2022-11-07T21:36:30.082Z,25.80
2022-11-07T21:39:06.033Z,20.30
2022-11-07T21:41:40.254Z,13.38
2022-11-07T21:44:42.414Z,16.88
2022-11-07T21:50:50.374Z,20.88
2022-11-07T21:53:25.274Z,20.23
2022-11-07T21:56:00.000Z,18.45
2022-11-07T21:58:32.030Z,24.52
2022-11-07T22:01:08.787Z,17.85
2022-11-07T22:04:04.628Z,16.10
2022-11-07T22:07:02.197Z,18.83
2022-11-07T22:09:53.440Z,19.48
2022-11-07T22:12:41.172Z,13.05
2022-11-07T22:15:16.311Z,28.15
2022-11-07T22:17:55.346Z,21.63
2022-11-07T22:20:58.079Z,23.85
2022-11-07T22:26:27.651Z,16.45
2022-11-07T22:29:00.193Z,25.05
2022-11-07T22:32:04.044Z,18.60
2022-11-07T22:34:34.657Z,25.33
2022-11-07T22:39:44.123Z,24.40
2022-11-07T22:42:12.713Z,20.02
2022-11-07T22:44:50.004Z,20.33
2022-11-07T22:47:34.654Z,33.28
2022-11-07T22:50:08.155Z,32.50
2022-11-07T22:52:48.107Z,26.73
2022-11-07T22:55:27.751Z,31.23
2022-11-07T22:57:54.751Z,31.13
2022-11-07T23:00:22.234Z,30.42
2022-11-07T23:02:49.483Z,29.83
2022-11-07T23:05:16.613Z,25.35
2022-11-07T23:07:43.678Z,29.13
2022-11-07T23:10:10.787Z,28.17
2022-11-07T23:12:37.789Z,27.80
2022-11-07T23:15:05.302Z,36.08
2022-11-07T23:17:32.309Z,36.42
2022-11-07T23:19:59.396Z,28.80
2022-11-07T23:22:31.215Z,25.13
2022-11-07T23:24:59.621Z,23.98
2022-11-07T23:27:26.651Z,20.17
2022-11-07T23:29:53.658Z,28.98
2022-11-07T23:32:20.725Z,31.05
2022-11-07T23:34:50.128Z,25.33
2022-11-07T23:37:17.939Z,36.60
2022-11-07T23:39:44.969Z,22.08
2022-11-07T23:42:12.180Z,32.78
2022-11-07T23:44:59.140Z,27.70
2022-11-07T23:47:44.770Z,33.78
2022-11-07T23:50:30.451Z,36.78
2022-11-07T23:52:57.480Z,35.75
2022-11-07T23:55:39.888Z,25.10
2022-11-07T23:58:25.539Z,28.60
